createdAt,value
2018-06-27T00:01:25.017Z,15.40
2018-06-27T00:03:52.739Z,15.30
2018-06-27T00:06:20.355Z,15.20
2018-06-27T00:08:48.072Z,15.20
2018-06-27T00:11:15.751Z,15.10
2018-06-27T00:13:44.483Z,15.00
2018-06-27T00:16:12.147Z,15.00
2018-06-27T00:18:39.824Z,15.00
2018-06-27T00:21:07.626Z,15.00
2018-06-27T00:23:35.381Z,15.00
2018-06-27T00:26:03.046Z,14.90
2018-06-27T00:28:30.860Z,14.90
2018-06-27T00:30:58.509Z,14.90
2018-06-27T00:33:26.162Z,14.80
2018-06-27T00:35:53.863Z,14.80
2018-06-27T00:38:21.588Z,14.70
2018-06-27T00:40:49.248Z,14.70
2018-06-27T00:43:16.907Z,14.60
2018-06-27T00:45:44.544Z,14.60
2018-06-27T00:48:12.218Z,14.60
2018-06-27T00:50:40.260Z,14.50
2018-06-27T00:53:07.933Z,14.50
2018-06-27T00:55:36.343Z,14.40
2018-06-27T00:58:04.245Z,14.40
2018-06-27T01:00:31.979Z,14.30
2018-06-27T01:02:59.607Z,14.30
2018-06-27T01:05:27.277Z,14.20
2018-06-27T01:07:55.003Z,14.20
2018-06-27T01:10:22.638Z,14.10
2018-06-27T01:12:50.228Z,14.10
2018-06-27T01:15:17.850Z,14.10
2018-06-27T01:17:54.155Z,14.00
2018-06-27T01:20:21.841Z,14.00
2018-06-27T01:22:49.749Z,14.00
2018-06-27T01:25:17.655Z,14.00
2018-06-27T01:27:45.591Z,14.10
2018-06-27T01:30:13.281Z,14.30
2018-06-27T01:32:40.908Z,14.30
2018-06-27T01:35:08.607Z,14.40
2018-06-27T01:37:36.307Z,14.40
2018-06-27T01:40:03.959Z,14.40
2018-06-27T01:42:31.648Z,14.30
2018-06-27T01:45:06.037Z,14.40
2018-06-27T01:47:33.653Z,14.40
2018-06-27T01:50:01.326Z,14.50
2018-06-27T01:52:29.059Z,14.70
2018-06-27T01:54:56.658Z,14.80
2018-06-27T01:57:24.235Z,14.90
2018-06-27T01:59:51.849Z,14.90
2018-06-27T02:02:19.055Z,14.90
2018-06-27T02:04:46.783Z,14.90
2018-06-27T02:07:14.386Z,14.90
2018-06-27T02:09:42.048Z,14.80
2018-06-27T02:12:09.678Z,14.90
2018-06-27T02:14:37.354Z,14.80
2018-06-27T02:17:05.075Z,14.80
2018-06-27T02:19:32.704Z,14.90
2018-06-27T02:22:00.304Z,14.90
2018-06-27T02:24:27.946Z,15.00
2018-06-27T02:26:55.659Z,15.10
2018-06-27T02:29:23.281Z,15.20
2018-06-27T02:31:50.848Z,15.20
2018-06-27T02:34:19.331Z,15.20
2018-06-27T02:36:46.999Z,15.30
2018-06-27T02:39:14.718Z,15.10
2018-06-27T02:41:42.384Z,15.00
2018-06-27T02:44:10.644Z,15.00
2018-06-27T02:46:38.307Z,14.90
2018-06-27T02:49:06.431Z,14.90
2018-06-27T02:51:34.162Z,14.90
2018-06-27T02:54:02.116Z,14.90
2018-06-27T02:56:29.725Z,14.80
2018-06-27T02:58:57.438Z,14.80
2018-06-27T03:01:25.207Z,14.70
2018-06-27T03:03:53.488Z,14.70
2018-06-27T03:06:21.141Z,14.50
2018-06-27T03:08:48.825Z,14.50
2018-06-27T03:11:16.489Z,14.40
2018-06-27T03:13:44.094Z,14.40
2018-06-27T03:16:11.811Z,14.30
2018-06-27T03:18:49.134Z,14.30
2018-06-27T03:21:16.882Z,14.30
2018-06-27T03:23:44.641Z,14.40
2018-06-27T03:26:12.310Z,14.30
2018-06-27T03:28:39.990Z,14.30
2018-06-27T03:31:07.650Z,14.30
2018-06-27T03:33:35.316Z,14.40
2018-06-27T03:36:02.986Z,14.40
2018-06-27T03:38:30.665Z,14.50
2018-06-27T03:40:58.381Z,14.60
2018-06-27T03:43:26.145Z,14.60
2018-06-27T03:45:53.842Z,14.60
2018-06-27T03:48:21.531Z,14.60
2018-06-27T03:50:49.141Z,14.50
2018-06-27T03:53:16.823Z,14.50
2018-06-27T03:55:44.425Z,14.50
2018-06-27T03:58:12.113Z,14.60
2018-06-27T04:00:39.775Z,14.70
2018-06-27T04:03:08.429Z,14.80
2018-06-27T04:05:36.075Z,14.90
2018-06-27T04:08:03.785Z,15.00
2018-06-27T04:10:31.485Z,15.10
2018-06-27T04:12:59.267Z,15.30
2018-06-27T04:15:26.851Z,15.50
2018-06-27T04:17:54.703Z,15.80
2018-06-27T04:20:22.349Z,16.00
2018-06-27T04:22:50.005Z,16.10
2018-06-27T04:25:17.716Z,16.10
2018-06-27T04:27:45.390Z,16.30
2018-06-27T04:30:13.054Z,16.50
2018-06-27T04:32:40.746Z,16.70
2018-06-27T04:35:08.528Z,16.80
2018-06-27T04:37:36.172Z,16.80
2018-06-27T04:40:03.901Z,16.90
2018-06-27T04:42:31.526Z,17.00
2018-06-27T04:44:59.188Z,16.90
2018-06-27T04:47:26.822Z,17.20
2018-06-27T04:49:54.473Z,17.30
2018-06-27T04:54:49.844Z,17.40
2018-06-27T04:57:17.479Z,17.50
2018-06-27T04:59:45.187Z,17.70
2018-06-27T05:02:13.456Z,17.70
2018-06-27T05:04:41.088Z,17.70
2018-06-27T05:07:08.757Z,17.90
2018-06-27T05:09:36.407Z,18.00
2018-06-27T05:12:04.116Z,18.10
2018-06-27T05:14:31.722Z,18.20
2018-06-27T05:16:59.377Z,18.20
2018-06-27T05:19:26.998Z,18.10
2018-06-27T05:21:54.693Z,18.40
2018-06-27T05:24:22.249Z,18.30
2018-06-27T05:26:49.994Z,18.30
2018-06-27T05:29:17.622Z,18.30
2018-06-27T05:31:49.848Z,18.40
2018-06-27T05:34:17.433Z,18.70
2018-06-27T05:36:45.923Z,18.80
2018-06-27T05:39:13.538Z,18.80
2018-06-27T05:41:41.264Z,18.70
2018-06-27T05:44:08.868Z,18.90
2018-06-27T05:46:36.462Z,19.10
2018-06-27T05:49:04.153Z,19.10
2018-06-27T05:51:31.734Z,19.50
2018-06-27T05:53:59.346Z,19.70
2018-06-27T05:56:26.946Z,19.80
2018-06-27T05:58:54.634Z,19.50
2018-06-27T06:01:22.285Z,19.50
2018-06-27T06:03:49.920Z,19.50
2018-06-27T06:06:17.580Z,19.30
2018-06-27T06:08:45.242Z,19.50
2018-06-27T06:11:12.982Z,19.60
2018-06-27T06:13:40.666Z,19.50
2018-06-27T06:16:08.273Z,19.70
2018-06-27T06:18:36.037Z,19.60
2018-06-27T06:21:03.648Z,19.70
2018-06-27T06:23:31.457Z,19.90
2018-06-27T06:25:59.006Z,20.00
2018-06-27T06:28:26.641Z,20.10
2018-06-27T06:30:54.217Z,20.10
2018-06-27T06:33:21.807Z,20.10
2018-06-27T06:35:49.421Z,20.20
2018-06-27T06:38:16.986Z,19.90
2018-06-27T06:40:44.739Z,19.30
2018-06-27T06:43:12.314Z,19.80
2018-06-27T06:45:39.967Z,20.20
2018-06-27T06:48:07.752Z,20.40
2018-06-27T06:50:35.400Z,20.40
2018-06-27T06:53:03.036Z,20.60
2018-06-27T06:55:31.110Z,20.60
2018-06-27T06:57:58.770Z,20.50
2018-06-27T07:00:26.476Z,20.70
2018-06-27T07:02:54.110Z,21.00
2018-06-27T07:05:21.702Z,21.00
2018-06-27T07:07:49.437Z,21.10
2018-06-27T07:10:17.067Z,21.10
2018-06-27T07:12:44.709Z,21.20
2018-06-27T07:15:12.509Z,21.40
2018-06-27T07:17:40.092Z,21.50
2018-06-27T07:20:07.810Z,21.50
2018-06-27T07:22:35.484Z,21.60
2018-06-27T07:25:03.161Z,21.50
2018-06-27T07:27:30.843Z,21.40
2018-06-27T07:29:58.551Z,21.20
2018-06-27T07:32:26.138Z,21.20
2018-06-27T07:34:53.814Z,21.20
2018-06-27T07:37:21.577Z,21.20
2018-06-27T07:39:49.286Z,21.20
2018-06-27T07:42:17.059Z,20.80
2018-06-27T07:44:44.761Z,21.00
2018-06-27T07:47:12.467Z,21.20
2018-06-27T07:49:40.152Z,21.60
2018-06-27T07:52:07.971Z,22.20
2018-06-27T07:54:39.307Z,22.40
2018-06-27T07:57:08.096Z,22.60
2018-06-27T07:59:35.854Z,22.30
2018-06-27T08:02:04.637Z,22.20
2018-06-27T08:04:32.247Z,21.80
2018-06-27T08:06:59.975Z,21.80
2018-06-27T08:09:27.551Z,22.80
2018-06-27T08:11:55.123Z,22.80
2018-06-27T08:14:22.805Z,22.70
2018-06-27T08:16:50.745Z,23.50
2018-06-27T08:19:18.398Z,23.50
2018-06-27T08:24:13.866Z,23.30
2018-06-27T08:26:41.503Z,23.40
2018-06-27T08:29:09.290Z,23.20
2018-06-27T08:31:37.025Z,23.00
2018-06-27T08:34:04.872Z,23.00
2018-06-27T08:39:00.283Z,23.30
2018-06-27T08:41:27.925Z,23.40
2018-06-27T08:43:55.613Z,22.90
2018-06-27T08:46:23.267Z,22.30
2018-06-27T08:48:50.950Z,22.70
2018-06-27T08:51:18.617Z,23.30
2018-06-27T08:56:13.953Z,22.80
2018-06-27T08:58:41.707Z,23.10
2018-06-27T09:01:09.395Z,23.40
2018-06-27T09:03:37.025Z,23.70
2018-06-27T09:06:04.768Z,23.70
2018-06-27T09:08:32.435Z,23.60
2018-06-27T09:11:00.091Z,23.40
2018-06-27T09:13:27.747Z,23.00
2018-06-27T09:15:55.491Z,23.30
2018-06-27T09:18:23.383Z,23.30
2018-06-27T09:20:51.158Z,23.70
2018-06-27T09:23:18.782Z,23.60
2018-06-27T09:25:46.521Z,23.30
2018-06-27T09:28:14.207Z,23.50
2018-06-27T09:30:41.802Z,23.60
2018-06-27T09:33:09.558Z,23.00
2018-06-27T09:35:37.267Z,23.30
2018-06-27T09:40:32.645Z,23.90
2018-06-27T09:43:00.412Z,24.20
2018-06-27T09:45:28.198Z,24.00
2018-06-27T09:50:23.675Z,24.50
2018-06-27T09:52:51.373Z,24.20
2018-06-27T09:55:19.086Z,23.90
2018-06-27T09:57:46.752Z,23.90
2018-06-27T10:00:20.090Z,24.20
2018-06-27T10:02:47.694Z,23.80
2018-06-27T10:05:15.837Z,24.30
2018-06-27T10:07:43.543Z,24.10
2018-06-27T10:10:11.182Z,23.90
2018-06-27T10:12:38.822Z,23.90
2018-06-27T10:15:13.264Z,23.60
2018-06-27T10:20:08.732Z,23.90
2018-06-27T10:22:36.451Z,23.50
2018-06-27T10:25:04.124Z,23.80
2018-06-27T10:27:31.820Z,23.90
2018-06-27T10:29:59.581Z,24.10
2018-06-27T10:32:27.422Z,24.00
2018-06-27T10:34:55.155Z,23.50
2018-06-27T10:37:22.803Z,24.00
2018-06-27T10:39:50.486Z,24.40
2018-06-27T10:42:18.380Z,24.70
2018-06-27T10:44:46.143Z,24.40
2018-06-27T10:47:13.790Z,24.00
2018-06-27T10:49:41.443Z,24.30
2018-06-27T10:52:09.143Z,24.30
2018-06-27T10:54:41.348Z,24.00
2018-06-27T10:57:08.980Z,23.30
2018-06-27T10:59:36.655Z,23.60
2018-06-27T11:02:04.330Z,23.60
2018-06-27T11:04:32.078Z,23.90
2018-06-27T11:06:59.790Z,24.20
2018-06-27T11:09:27.580Z,24.10
2018-06-27T11:11:55.228Z,23.60
2018-06-27T11:16:50.521Z,23.60
2018-06-27T11:19:18.249Z,23.90
2018-06-27T11:21:45.985Z,23.20
2018-06-27T11:24:13.585Z,23.40
2018-06-27T11:26:41.247Z,23.50
2018-06-27T11:29:08.853Z,23.90
2018-06-27T11:31:36.592Z,24.90
2018-06-27T11:34:04.327Z,24.80
2018-06-27T11:36:32.252Z,25.80
2018-06-27T11:38:59.933Z,26.00
2018-06-27T11:41:27.563Z,25.60
2018-06-27T11:43:55.210Z,25.70
2018-06-27T11:46:22.969Z,25.40
2018-06-27T11:48:50.651Z,26.00
2018-06-27T11:51:18.318Z,25.90
2018-06-27T11:53:45.986Z,25.70
2018-06-27T11:56:13.716Z,25.80
2018-06-27T11:58:41.362Z,26.80
2018-06-27T12:01:09.056Z,28.10
2018-06-27T12:03:36.774Z,28.90
2018-06-27T12:06:04.494Z,29.40
2018-06-27T12:08:32.278Z,30.90
2018-06-27T12:10:59.858Z,31.30
2018-06-27T12:13:27.560Z,31.70
2018-06-27T12:15:55.202Z,29.40
2018-06-27T12:18:22.879Z,28.90
2018-06-27T12:20:50.572Z,28.40
2018-06-27T12:23:18.185Z,28.00
2018-06-27T12:25:45.867Z,28.40
2018-06-27T12:28:13.643Z,28.30
2018-06-27T12:30:41.537Z,27.60
2018-06-27T12:33:09.302Z,26.30
2018-06-27T12:35:36.956Z,26.40
2018-06-27T12:38:06.272Z,26.90
2018-06-27T12:40:33.957Z,27.70
2018-06-27T12:43:01.703Z,29.40
2018-06-27T12:48:03.899Z,33.70
2018-06-27T12:50:31.535Z,36.60
2018-06-27T12:52:59.182Z,38.40
2018-06-27T12:55:26.824Z,38.90
2018-06-27T12:57:54.491Z,39.50
2018-06-27T13:00:22.160Z,40.60
2018-06-27T13:02:49.919Z,40.60
2018-06-27T13:05:17.641Z,39.50
2018-06-27T13:07:45.251Z,40.20
2018-06-27T13:10:12.873Z,41.80
2018-06-27T13:12:40.451Z,42.20
2018-06-27T13:15:08.042Z,42.00
2018-06-27T13:17:35.701Z,42.40
2018-06-27T13:20:04.127Z,40.90
2018-06-27T13:22:31.973Z,41.30
2018-06-27T13:24:59.719Z,40.50
2018-06-27T13:27:28.059Z,39.10
2018-06-27T13:29:55.711Z,37.90
2018-06-27T13:32:23.422Z,37.50
2018-06-27T13:34:51.884Z,34.60
2018-06-27T13:37:20.436Z,33.90
2018-06-27T13:39:48.066Z,35.50
2018-06-27T13:42:15.884Z,38.40
2018-06-27T13:44:43.502Z,37.80
2018-06-27T13:47:11.516Z,37.50
2018-06-27T13:49:39.294Z,37.40
2018-06-27T13:55:08.420Z,38.60
2018-06-27T13:57:50.741Z,40.40
2018-06-27T14:00:27.899Z,42.10
2018-06-27T14:02:55.590Z,42.20
2018-06-27T14:05:23.260Z,43.00
2018-06-27T14:07:50.890Z,42.30
2018-06-27T14:10:18.602Z,39.70
2018-06-27T14:12:46.294Z,36.20
2018-06-27T14:15:13.960Z,37.30
2018-06-27T14:17:41.628Z,37.80
2018-06-27T14:20:09.264Z,38.10
2018-06-27T14:22:36.885Z,36.70
2018-06-27T14:25:04.558Z,35.90
2018-06-27T14:27:32.207Z,36.50
2018-06-27T14:29:59.913Z,37.20
2018-06-27T14:32:27.533Z,38.80
2018-06-27T14:34:55.223Z,40.00
2018-06-27T14:37:22.896Z,38.00
2018-06-27T14:39:50.525Z,36.20
2018-06-27T14:42:18.153Z,33.80
2018-06-27T14:44:45.887Z,32.80
2018-06-27T14:47:13.534Z,32.60
2018-06-27T14:49:41.194Z,31.70
2018-06-27T14:52:08.834Z,30.90
2018-06-27T14:54:36.488Z,30.90
2018-06-27T14:57:04.154Z,31.50
2018-06-27T14:59:31.861Z,30.50
2018-06-27T15:01:59.506Z,30.10
2018-06-27T15:04:27.267Z,29.00
2018-06-27T15:06:54.972Z,28.00
2018-06-27T15:09:22.722Z,28.00
2018-06-27T15:11:50.410Z,28.00
2018-06-27T15:14:18.186Z,28.50
2018-06-27T15:16:45.904Z,30.20
2018-06-27T15:19:14.724Z,31.00
2018-06-27T15:21:42.704Z,30.00
2018-06-27T15:24:10.364Z,30.70
2018-06-27T15:26:38.080Z,30.40
2018-06-27T15:29:05.685Z,29.70
2018-06-27T15:31:33.349Z,30.30
2018-06-27T15:34:01.005Z,32.10
2018-06-27T15:36:28.639Z,32.90
2018-06-27T15:38:56.263Z,32.90
2018-06-27T15:41:23.893Z,34.20
2018-06-27T15:43:51.525Z,35.30
2018-06-27T15:46:19.411Z,36.60
2018-06-27T15:48:47.431Z,35.80
2018-06-27T15:51:15.273Z,35.20
2018-06-27T15:53:43.055Z,35.40
2018-06-27T15:56:10.777Z,37.40
2018-06-27T15:58:38.607Z,37.50
2018-06-27T16:01:06.696Z,38.40
2018-06-27T16:03:34.879Z,38.20
2018-06-27T16:06:02.693Z,39.20
2018-06-27T16:08:30.349Z,39.10
2018-06-27T16:10:58.097Z,38.40
2018-06-27T16:13:25.849Z,39.90
2018-06-27T16:15:53.538Z,40.40
2018-06-27T16:18:21.276Z,41.50
2018-06-27T16:20:48.931Z,41.30
2018-06-27T16:23:16.526Z,41.10
2018-06-27T16:25:44.182Z,41.90
2018-06-27T16:28:11.908Z,42.20
2018-06-27T16:30:39.595Z,41.90
2018-06-27T16:33:07.384Z,42.10
2018-06-27T16:35:35.038Z,41.40
2018-06-27T16:38:02.759Z,40.40
2018-06-27T16:40:30.365Z,39.70
2018-06-27T16:42:57.962Z,40.00
2018-06-27T16:45:26.677Z,38.80
2018-06-27T16:47:54.417Z,39.50
2018-06-27T16:50:22.097Z,39.50
2018-06-27T16:52:49.744Z,39.30
2018-06-27T16:55:17.586Z,39.30
2018-06-27T16:57:45.239Z,39.80
2018-06-27T17:00:13.044Z,38.40
2018-06-27T17:02:40.674Z,38.50
2018-06-27T17:05:08.417Z,38.00
2018-06-27T17:07:36.187Z,38.60
2018-06-27T17:10:04.465Z,38.50
2018-06-27T17:12:32.139Z,37.70
2018-06-27T17:14:59.892Z,37.30
2018-06-27T17:17:27.486Z,37.60
2018-06-27T17:19:55.404Z,37.50
2018-06-27T17:22:23.012Z,36.40
2018-06-27T17:24:50.840Z,35.10
2018-06-27T17:27:18.507Z,34.00
2018-06-27T17:29:46.220Z,33.50
2018-06-27T17:32:13.964Z,33.10
2018-06-27T17:34:41.800Z,32.80
2018-06-27T17:37:09.475Z,32.70
2018-06-27T17:39:37.195Z,32.20
2018-06-27T17:42:04.880Z,31.70
2018-06-27T17:47:00.746Z,32.40
2018-06-27T17:49:28.311Z,32.50
2018-06-27T17:51:55.935Z,33.50
2018-06-27T17:54:23.575Z,34.20
2018-06-27T17:56:51.263Z,34.40
2018-06-27T17:59:18.897Z,33.60
2018-06-27T18:01:46.630Z,34.00
2018-06-27T18:04:14.302Z,33.80
2018-06-27T18:06:42.143Z,33.90
2018-06-27T18:09:09.974Z,33.90
2018-06-27T18:11:38.622Z,33.90
2018-06-27T18:14:06.461Z,32.50
2018-06-27T18:16:34.527Z,32.10
2018-06-27T18:19:03.264Z,32.20
2018-06-27T18:21:31.654Z,32.60
2018-06-27T18:23:59.469Z,31.30
2018-06-27T18:26:27.400Z,31.80
2018-06-27T18:28:55.069Z,31.80
2018-06-27T18:33:50.653Z,30.00
2018-06-27T18:36:18.385Z,28.60
2018-06-27T18:38:46.162Z,27.80
2018-06-27T18:41:13.853Z,26.90
2018-06-27T18:43:41.547Z,26.50
2018-06-27T18:46:09.239Z,25.90
2018-06-27T18:48:37.229Z,24.90
2018-06-27T18:51:05.138Z,24.80
2018-06-27T18:53:32.878Z,24.60
2018-06-27T18:56:00.636Z,24.50
2018-06-27T18:58:28.651Z,24.10
2018-06-27T19:00:56.442Z,24.10
2018-06-27T19:03:24.346Z,24.00
2018-06-27T19:05:52.014Z,23.70
2018-06-27T19:08:19.671Z,23.60
2018-06-27T19:10:47.490Z,23.60
2018-06-27T19:15:42.996Z,23.60
2018-06-27T19:18:10.750Z,23.60
2018-06-27T19:20:38.441Z,23.40
2018-06-27T19:23:06.182Z,23.20
2018-06-27T19:25:33.925Z,23.00
2018-06-27T19:28:01.569Z,22.90
2018-06-27T19:30:29.355Z,22.90
2018-06-27T19:32:57.035Z,22.70
2018-06-27T19:37:52.637Z,22.60
2018-06-27T19:40:20.291Z,22.40
2018-06-27T19:42:47.948Z,22.30
2018-06-27T19:45:15.655Z,22.30
2018-06-27T19:47:43.382Z,22.20
2018-06-27T19:50:11.089Z,22.00
2018-06-27T19:52:38.791Z,21.90
2018-06-27T19:55:06.770Z,21.80
2018-06-27T19:57:34.484Z,21.80
2018-06-27T20:00:02.318Z,21.70
2018-06-27T20:02:30.145Z,21.50
2018-06-27T20:07:25.670Z,21.50
2018-06-27T20:09:53.313Z,21.50
2018-06-27T20:14:48.975Z,21.50
2018-06-27T20:17:16.621Z,21.40
2018-06-27T20:19:44.425Z,21.50
2018-06-27T20:22:12.239Z,21.50
2018-06-27T20:24:39.912Z,21.50
2018-06-27T20:27:07.599Z,21.50
2018-06-27T20:29:35.197Z,21.60
2018-06-27T20:32:02.923Z,21.60
2018-06-27T20:34:30.639Z,21.60
2018-06-27T20:36:58.465Z,21.60
2018-06-27T20:39:26.951Z,21.60
2018-06-27T20:41:54.651Z,21.60
2018-06-27T20:44:22.323Z,21.50
2018-06-27T20:46:50.094Z,21.50
2018-06-27T20:51:45.708Z,21.40
2018-06-27T20:54:13.396Z,21.50
2018-06-27T20:56:41.090Z,21.50
2018-06-27T20:59:08.817Z,21.50
2018-06-27T21:01:36.598Z,21.40
2018-06-27T21:04:04.324Z,21.40
2018-06-27T21:06:32.010Z,21.40
2018-06-27T21:08:59.686Z,21.40
2018-06-27T21:11:27.349Z,21.30
2018-06-27T21:16:22.841Z,21.20
2018-06-27T21:18:50.545Z,21.20
2018-06-27T21:21:18.283Z,21.20
2018-06-27T21:23:45.869Z,21.20
2018-06-27T21:26:13.479Z,21.10
2018-06-27T21:28:41.189Z,21.10
2018-06-27T21:31:08.783Z,21.10
2018-06-27T21:33:36.465Z,21.00
2018-06-27T21:36:04.088Z,20.90
2018-06-27T21:38:31.731Z,20.90
2018-06-27T21:40:59.366Z,20.90
2018-06-27T21:43:27.076Z,20.90
2018-06-27T21:45:54.660Z,20.90
2018-06-27T21:48:22.314Z,20.80
2018-06-27T21:50:49.988Z,20.80
2018-06-27T21:53:17.610Z,20.70
2018-06-27T21:55:45.272Z,20.70
2018-06-27T21:58:13.170Z,20.70
2018-06-27T22:00:40.802Z,20.70
2018-06-27T22:03:08.472Z,20.70
2018-06-27T22:05:36.156Z,20.80
2018-06-27T22:08:03.800Z,20.80
2018-06-27T22:10:31.486Z,20.70
2018-06-27T22:12:59.139Z,20.70
2018-06-27T22:15:26.780Z,20.60
2018-06-27T22:17:54.376Z,20.60
2018-06-27T22:20:21.945Z,20.60
2018-06-27T22:22:49.629Z,20.60
2018-06-27T22:25:17.235Z,20.60
2018-06-27T22:27:44.855Z,20.60
2018-06-27T22:30:12.557Z,20.50
2018-06-27T22:32:40.209Z,20.60
2018-06-27T22:35:07.802Z,20.50
2018-06-27T22:37:35.508Z,20.50
2018-06-27T22:40:03.197Z,20.40
2018-06-27T22:42:30.874Z,20.40
2018-06-27T22:44:58.484Z,20.40
2018-06-27T22:47:26.114Z,20.40
2018-06-27T22:49:53.797Z,20.40
2018-06-27T22:52:21.466Z,20.30
2018-06-27T22:54:49.062Z,20.30
2018-06-27T22:57:16.719Z,20.30
2018-06-27T22:59:44.533Z,20.20
2018-06-27T23:02:12.261Z,20.20
2018-06-27T23:04:40.037Z,20.10
2018-06-27T23:07:07.817Z,20.00
2018-06-27T23:09:35.533Z,20.10
2018-06-27T23:12:03.216Z,20.00
2018-06-27T23:14:30.810Z,19.90
2018-06-27T23:16:58.445Z,19.90
2018-06-27T23:19:26.145Z,19.80
2018-06-27T23:21:53.708Z,19.70
2018-06-27T23:24:21.371Z,19.60
2018-06-27T23:26:49.127Z,19.50
2018-06-27T23:29:16.749Z,19.40
2018-06-27T23:31:44.409Z,19.30
2018-06-27T23:34:12.035Z,19.30
2018-06-27T23:36:39.733Z,19.30
2018-06-27T23:39:10.016Z,19.20
2018-06-27T23:41:37.652Z,19.30
2018-06-27T23:44:05.370Z,19.20
2018-06-27T23:46:33.085Z,19.10
2018-06-27T23:49:00.702Z,19.00
2018-06-27T23:51:28.375Z,19.00
2018-06-27T23:53:56.071Z,18.90
2018-06-27T23:56:24.244Z,18.90
2018-06-27T23:58:51.864Z,18.80
